sensor_id;sensor_type;location;lat;lon;timestamp;P1;durP1;ratioP1;P2;durP2;ratioP2
45764;SDS011;31474;45.332;10.230;2022-08-18T00:01:42;8.40;;;6.25;;
45764;SDS011;31474;45.332;10.230;2022-08-18T00:04:10;6.07;;;5.47;;
45764;SDS011;31474;45.332;10.230;2022-08-18T00:06:36;8.63;;;5.47;;
45764;SDS011;31474;45.332;10.230;2022-08-18T00:09:03;9.40;;;5.88;;
45764;SDS011;31474;45.332;10.230;2022-08-18T00:11:32;12.07;;;6.28;;
45764;SDS011;31474;45.332;10.230;2022-08-18T00:14:00;7.65;;;6.63;;
45764;SDS011;31474;45.332;10.230;2022-08-18T00:16:25;10.95;;;6.50;;
45764;SDS011;31474;45.332;10.230;2022-08-18T00:18:51;9.95;;;6.72;;
45764;SDS011;31474;45.332;10.230;2022-08-18T00:21:17;9.85;;;6.43;;
45764;SDS011;31474;45.332;10.230;2022-08-18T00:23:43;10.93;;;7.05;;
45764;SDS011;31474;45.332;10.230;2022-08-18T00:26:09;9.55;;;7.03;;
45764;SDS011;31474;45.332;10.230;2022-08-18T00:28:35;7.70;;;6.18;;
45764;SDS011;31474;45.332;10.230;2022-08-18T00:31:00;9.88;;;6.85;;
45764;SDS011;31474;45.332;10.230;2022-08-18T00:33:26;10.32;;;6.57;;
45764;SDS011;31474;45.332;10.230;2022-08-18T00:35:52;9.75;;;6.47;;
45764;SDS011;31474;45.332;10.230;2022-08-18T00:38:17;7.72;;;6.63;;
45764;SDS011;31474;45.332;10.230;2022-08-18T00:40:47;10.23;;;7.20;;
45764;SDS011;31474;45.332;10.230;2022-08-18T00:43:23;10.90;;;6.95;;
45764;SDS011;31474;45.332;10.230;2022-08-18T00:45:53;11.75;;;6.55;;
45764;SDS011;31474;45.332;10.230;2022-08-18T00:48:19;9.35;;;7.30;;
45764;SDS011;31474;45.332;10.230;2022-08-18T00:50:47;13.02;;;7.68;;
45764;SDS011;31474;45.332;10.230;2022-08-18T00:55:59;9.82;;;6.82;;
45764;SDS011;31474;45.332;10.230;2022-08-18T00:58:32;9.05;;;6.90;;
45764;SDS011;31474;45.332;10.230;2022-08-18T01:01:02;12.40;;;7.45;;
45764;SDS011;31474;45.332;10.230;2022-08-18T01:03:30;10.57;;;7.07;;
45764;SDS011;31474;45.332;10.230;2022-08-18T01:06:02;8.85;;;7.30;;
45764;SDS011;31474;45.332;10.230;2022-08-18T01:08:47;13.68;;;7.10;;
45764;SDS011;31474;45.332;10.230;2022-08-18T01:11:13;7.88;;;6.47;;
45764;SDS011;31474;45.332;10.230;2022-08-18T01:13:38;8.88;;;6.45;;
45764;SDS011;31474;45.332;10.230;2022-08-18T01:16:07;9.43;;;6.22;;
45764;SDS011;31474;45.332;10.230;2022-08-18T01:18:52;11.30;;;7.90;;
45764;SDS011;31474;45.332;10.230;2022-08-18T01:21:38;8.80;;;7.05;;
45764;SDS011;31474;45.332;10.230;2022-08-18T01:24:17;10.57;;;7.32;;
45764;SDS011;31474;45.332;10.230;2022-08-18T01:26:45;13.45;;;7.72;;
45764;SDS011;31474;45.332;10.230;2022-08-18T01:29:16;11.77;;;8.27;;
45764;SDS011;31474;45.332;10.230;2022-08-18T01:31:46;13.90;;;7.72;;
45764;SDS011;31474;45.332;10.230;2022-08-18T01:34:19;8.07;;;7.28;;
45764;SDS011;31474;45.332;10.230;2022-08-18T01:36:46;15.32;;;8.35;;
45764;SDS011;31474;45.332;10.230;2022-08-18T01:39:16;10.93;;;8.93;;
45764;SDS011;31474;45.332;10.230;2022-08-18T01:41:42;13.63;;;8.10;;
45764;SDS011;31474;45.332;10.230;2022-08-18T01:44:08;13.38;;;8.70;;
45764;SDS011;31474;45.332;10.230;2022-08-18T01:46:35;14.73;;;9.35;;
45764;SDS011;31474;45.332;10.230;2022-08-18T01:49:02;11.32;;;8.07;;
45764;SDS011;31474;45.332;10.230;2022-08-18T01:51:29;17.27;;;8.93;;
45764;SDS011;31474;45.332;10.230;2022-08-18T01:53:56;14.90;;;8.30;;
45764;SDS011;31474;45.332;10.230;2022-08-18T01:56:23;14.73;;;8.02;;
45764;SDS011;31474;45.332;10.230;2022-08-18T01:58:51;13.98;;;8.43;;
45764;SDS011;31474;45.332;10.230;2022-08-18T02:01:18;11.00;;;8.10;;
45764;SDS011;31474;45.332;10.230;2022-08-18T02:03:45;14.30;;;7.63;;
45764;SDS011;31474;45.332;10.230;2022-08-18T02:06:15;10.32;;;7.60;;
45764;SDS011;31474;45.332;10.230;2022-08-18T02:08:43;11.30;;;7.55;;
45764;SDS011;31474;45.332;10.230;2022-08-18T02:11:09;13.05;;;7.07;;
45764;SDS011;31474;45.332;10.230;2022-08-18T02:13:35;12.15;;;6.88;;
45764;SDS011;31474;45.332;10.230;2022-08-18T02:16:01;10.45;;;5.03;;
45764;SDS011;31474;45.332;10.230;2022-08-18T02:18:29;10.80;;;5.97;;
45764;SDS011;31474;45.332;10.230;2022-08-18T02:20:58;8.95;;;5.82;;
45764;SDS011;31474;45.332;10.230;2022-08-18T02:23:31;17.45;;;7.15;;
45764;SDS011;31474;45.332;10.230;2022-08-18T02:25:57;14.45;;;6.63;;
45764;SDS011;31474;45.332;10.230;2022-08-18T02:28:23;10.10;;;5.88;;
45764;SDS011;31474;45.332;10.230;2022-08-18T02:30:48;8.93;;;6.63;;
45764;SDS011;31474;45.332;10.230;2022-08-18T02:33:14;10.15;;;5.93;;
45764;SDS011;31474;45.332;10.230;2022-08-18T02:35:40;12.70;;;6.82;;
45764;SDS011;31474;45.332;10.230;2022-08-18T02:38:07;9.20;;;6.35;;
45764;SDS011;31474;45.332;10.230;2022-08-18T02:40:33;11.25;;;6.60;;
45764;SDS011;31474;45.332;10.230;2022-08-18T02:43:07;12.98;;;6.95;;
45764;SDS011;31474;45.332;10.230;2022-08-18T02:45:35;11.90;;;7.03;;
45764;SDS011;31474;45.332;10.230;2022-08-18T02:48:02;10.70;;;7.70;;
45764;SDS011;31474;45.332;10.230;2022-08-18T02:50:28;13.63;;;8.55;;
45764;SDS011;31474;45.332;10.230;2022-08-18T02:52:54;13.15;;;7.88;;
45764;SDS011;31474;45.332;10.230;2022-08-18T02:55:20;10.57;;;7.63;;
45764;SDS011;31474;45.332;10.230;2022-08-18T02:57:46;13.60;;;8.30;;
45764;SDS011;31474;45.332;10.230;2022-08-18T03:00:18;14.32;;;8.60;;
45764;SDS011;31474;45.332;10.230;2022-08-18T03:02:47;10.45;;;7.85;;
45764;SDS011;31474;45.332;10.230;2022-08-18T03:05:15;9.25;;;7.53;;
45764;SDS011;31474;45.332;10.230;2022-08-18T03:07:42;14.68;;;7.80;;
45764;SDS011;31474;45.332;10.230;2022-08-18T03:10:09;12.50;;;7.88;;
45764;SDS011;31474;45.332;10.230;2022-08-18T03:12:36;11.18;;;6.50;;
45764;SDS011;31474;45.332;10.230;2022-08-18T03:15:02;16.63;;;7.82;;
45764;SDS011;31474;45.332;10.230;2022-08-18T03:17:28;12.32;;;8.73;;
45764;SDS011;31474;45.332;10.230;2022-08-18T03:19:53;11.20;;;8.00;;
45764;SDS011;31474;45.332;10.230;2022-08-18T03:22:19;10.10;;;7.85;;
45764;SDS011;31474;45.332;10.230;2022-08-18T03:24:45;9.38;;;7.57;;
45764;SDS011;31474;45.332;10.230;2022-08-18T03:27:10;11.35;;;7.78;;
45764;SDS011;31474;45.332;10.230;2022-08-18T03:29:36;12.98;;;8.77;;
45764;SDS011;31474;45.332;10.230;2022-08-18T03:32:03;11.32;;;7.57;;
45764;SDS011;31474;45.332;10.230;2022-08-18T03:34:30;12.95;;;8.02;;
45764;SDS011;31474;45.332;10.230;2022-08-18T03:36:57;13.32;;;7.18;;
45764;SDS011;31474;45.332;10.230;2022-08-18T03:39:23;17.05;;;10.07;;
45764;SDS011;31474;45.332;10.230;2022-08-18T03:41:49;13.00;;;8.68;;
45764;SDS011;31474;45.332;10.230;2022-08-18T03:44:19;14.00;;;9.00;;
45764;SDS011;31474;45.332;10.230;2022-08-18T03:46:46;11.13;;;9.25;;
45764;SDS011;31474;45.332;10.230;2022-08-18T03:49:12;11.98;;;8.43;;
45764;SDS011;31474;45.332;10.230;2022-08-18T03:51:40;16.73;;;9.48;;
45764;SDS011;31474;45.332;10.230;2022-08-18T03:54:07;12.60;;;9.65;;
45764;SDS011;31474;45.332;10.230;2022-08-18T03:56:34;17.33;;;9.48;;
45764;SDS011;31474;45.332;10.230;2022-08-18T03:59:21;14.00;;;9.52;;
45764;SDS011;31474;45.332;10.230;2022-08-18T04:01:49;15.32;;;9.80;;
45764;SDS011;31474;45.332;10.230;2022-08-18T04:04:17;13.10;;;9.65;;
45764;SDS011;31474;45.332;10.230;2022-08-18T04:06:47;12.52;;;9.20;;
45764;SDS011;31474;45.332;10.230;2022-08-18T04:09:15;12.00;;;8.63;;
45764;SDS011;31474;45.332;10.230;2022-08-18T04:11:42;13.02;;;9.13;;
45764;SDS011;31474;45.332;10.230;2022-08-18T04:14:12;10.75;;;8.82;;
45764;SDS011;31474;45.332;10.230;2022-08-18T04:16:40;10.93;;;8.93;;
45764;SDS011;31474;45.332;10.230;2022-08-18T04:19:06;15.38;;;9.30;;
45764;SDS011;31474;45.332;10.230;2022-08-18T04:21:34;11.30;;;7.85;;
45764;SDS011;31474;45.332;10.230;2022-08-18T04:24:02;13.48;;;8.20;;
45764;SDS011;31474;45.332;10.230;2022-08-18T04:26:32;13.88;;;9.80;;
45764;SDS011;31474;45.332;10.230;2022-08-18T04:29:06;11.85;;;8.73;;
45764;SDS011;31474;45.332;10.230;2022-08-18T04:31:36;12.68;;;8.35;;
45764;SDS011;31474;45.332;10.230;2022-08-18T04:34:02;13.43;;;9.13;;
45764;SDS011;31474;45.332;10.230;2022-08-18T04:36:30;13.27;;;9.25;;
45764;SDS011;31474;45.332;10.230;2022-08-18T04:38:58;12.05;;;9.02;;
45764;SDS011;31474;45.332;10.230;2022-08-18T04:41:25;13.50;;;8.52;;
45764;SDS011;31474;45.332;10.230;2022-08-18T04:43:55;14.70;;;9.55;;
45764;SDS011;31474;45.332;10.230;2022-08-18T04:46:22;11.68;;;8.90;;
45764;SDS011;31474;45.332;10.230;2022-08-18T04:48:48;14.02;;;9.10;;
45764;SDS011;31474;45.332;10.230;2022-08-18T04:51:15;17.02;;;8.70;;
45764;SDS011;31474;45.332;10.230;2022-08-18T04:53:43;14.18;;;9.15;;
45764;SDS011;31474;45.332;10.230;2022-08-18T04:56:17;11.02;;;9.32;;
45764;SDS011;31474;45.332;10.230;2022-08-18T04:58:53;17.90;;;9.70;;
45764;SDS011;31474;45.332;10.230;2022-08-18T05:01:22;13.95;;;8.68;;
45764;SDS011;31474;45.332;10.230;2022-08-18T05:03:50;12.52;;;7.57;;
45764;SDS011;31474;45.332;10.230;2022-08-18T05:06:18;11.55;;;7.63;;
45764;SDS011;31474;45.332;10.230;2022-08-18T05:08:45;11.50;;;7.70;;
45764;SDS011;31474;45.332;10.230;2022-08-18T05:11:14;12.23;;;7.63;;
45764;SDS011;31474;45.332;10.230;2022-08-18T05:13:40;10.00;;;7.25;;
45764;SDS011;31474;45.332;10.230;2022-08-18T05:16:06;15.73;;;7.35;;
45764;SDS011;31474;45.332;10.230;2022-08-18T05:18:33;13.60;;;6.95;;
45764;SDS011;31474;45.332;10.230;2022-08-18T05:21:04;10.32;;;6.07;;
45764;SDS011;31474;45.332;10.230;2022-08-18T05:23:38;12.23;;;7.65;;
45764;SDS011;31474;45.332;10.230;2022-08-18T05:26:06;15.07;;;7.95;;
45764;SDS011;31474;45.332;10.230;2022-08-18T05:28:33;13.35;;;7.80;;
45764;SDS011;31474;45.332;10.230;2022-08-18T05:31:34;12.38;;;6.65;;
45764;SDS011;31474;45.332;10.230;2022-08-18T05:33:53;12.40;;;7.38;;
45764;SDS011;31474;45.332;10.230;2022-08-18T05:41:33;9.48;;;7.20;;
45764;SDS011;31474;45.332;10.230;2022-08-18T05:44:05;8.90;;;6.93;;
45764;SDS011;31474;45.332;10.230;2022-08-18T05:49:12;12.57;;;7.72;;
45764;SDS011;31474;45.332;10.230;2022-08-18T05:51:40;13.38;;;7.90;;
45764;SDS011;31474;45.332;10.230;2022-08-18T05:54:08;11.02;;;8.25;;
45764;SDS011;31474;45.332;10.230;2022-08-18T05:56:56;12.45;;;8.32;;
45764;SDS011;31474;45.332;10.230;2022-08-18T05:59:27;11.65;;;7.50;;
45764;SDS011;31474;45.332;10.230;2022-08-18T06:07:11;16.15;;;8.40;;
45764;SDS011;31474;45.332;10.230;2022-08-18T06:09:49;12.98;;;7.78;;
45764;SDS011;31474;45.332;10.230;2022-08-18T06:14:49;11.98;;;8.10;;
45764;SDS011;31474;45.332;10.230;2022-08-18T06:28:00;9.38;;;7.40;;
45764;SDS011;31474;45.332;10.230;2022-08-18T06:36:36;11.10;;;8.25;;
45764;SDS011;31474;45.332;10.230;2022-08-18T06:41:48;11.85;;;8.20;;
45764;SDS011;31474;45.332;10.230;2022-08-18T06:44:35;18.20;;;8.52;;
45764;SDS011;31474;45.332;10.230;2022-08-18T06:47:24;11.15;;;7.72;;
45764;SDS011;31474;45.332;10.230;2022-08-18T06:50:26;11.70;;;8.18;;
45764;SDS011;31474;45.332;10.230;2022-08-18T06:53:06;12.77;;;8.80;;
45764;SDS011;31474;45.332;10.230;2022-08-18T06:55:37;15.85;;;8.50;;
45764;SDS011;31474;45.332;10.230;2022-08-18T07:01:27;15.15;;;8.90;;
45764;SDS011;31474;45.332;10.230;2022-08-18T07:08:39;19.07;;;11.10;;
45764;SDS011;31474;45.332;10.230;2022-08-18T07:11:16;18.50;;;10.30;;
45764;SDS011;31474;45.332;10.230;2022-08-18T07:13:53;18.13;;;12.35;;
45764;SDS011;31474;45.332;10.230;2022-08-18T07:16:23;17.17;;;12.05;;
45764;SDS011;31474;45.332;10.230;2022-08-18T07:18:51;20.23;;;12.48;;
45764;SDS011;31474;45.332;10.230;2022-08-18T07:21:27;19.27;;;12.45;;
45764;SDS011;31474;45.332;10.230;2022-08-18T07:24:03;17.70;;;12.50;;
45764;SDS011;31474;45.332;10.230;2022-08-18T07:26:55;19.17;;;12.57;;
45764;SDS011;31474;45.332;10.230;2022-08-18T07:29:39;20.40;;;13.85;;
45764;SDS011;31474;45.332;10.230;2022-08-18T07:32:23;20.30;;;11.77;;
45764;SDS011;31474;45.332;10.230;2022-08-18T07:35:00;15.27;;;11.50;;
45764;SDS011;31474;45.332;10.230;2022-08-18T07:40:02;15.77;;;10.43;;
45764;SDS011;31474;45.332;10.230;2022-08-18T07:42:40;13.60;;;8.98;;
45764;SDS011;31474;45.332;10.230;2022-08-18T07:45:16;14.82;;;7.63;;
45764;SDS011;31474;45.332;10.230;2022-08-18T07:47:53;9.88;;;7.68;;
45764;SDS011;31474;45.332;10.230;2022-08-18T07:50:44;11.10;;;7.10;;
45764;SDS011;31474;45.332;10.230;2022-08-18T07:55:44;10.05;;;8.25;;
45764;SDS011;31474;45.332;10.230;2022-08-18T07:58:33;11.35;;;7.45;;
45764;SDS011;31474;45.332;10.230;2022-08-18T08:01:09;10.25;;;6.50;;
45764;SDS011;31474;45.332;10.230;2022-08-18T08:17:11;6.53;;;3.78;;
45764;SDS011;31474;45.332;10.230;2022-08-18T08:25:25;5.75;;;3.42;;
45764;SDS011;31474;45.332;10.230;2022-08-18T08:30:24;4.85;;;2.60;;
45764;SDS011;31474;45.332;10.230;2022-08-18T08:33:00;6.63;;;3.35;;
45764;SDS011;31474;45.332;10.230;2022-08-18T08:38:17;4.78;;;3.10;;
45764;SDS011;31474;45.332;10.230;2022-08-18T08:40:52;6.82;;;2.70;;
45764;SDS011;31474;45.332;10.230;2022-08-18T08:43:24;4.68;;;2.47;;
45764;SDS011;31474;45.332;10.230;2022-08-18T08:48:31;7.57;;;2.30;;
45764;SDS011;31474;45.332;10.230;2022-08-18T08:51:02;4.57;;;2.30;;
45764;SDS011;31474;45.332;10.230;2022-08-18T08:53:52;4.97;;;2.13;;
45764;SDS011;31474;45.332;10.230;2022-08-18T08:56:28;5.60;;;2.55;;
45764;SDS011;31474;45.332;10.230;2022-08-18T08:58:58;5.30;;;2.08;;
45764;SDS011;31474;45.332;10.230;2022-08-18T09:04:02;6.80;;;2.63;;
45764;SDS011;31474;45.332;10.230;2022-08-18T09:06:54;8.48;;;2.80;;
45764;SDS011;31474;45.332;10.230;2022-08-18T09:21:17;5.28;;;2.50;;
45764;SDS011;31474;45.332;10.230;2022-08-18T09:24:05;6.97;;;2.63;;
45764;SDS011;31474;45.332;10.230;2022-08-18T09:29:15;6.95;;;3.20;;
45764;SDS011;31474;45.332;10.230;2022-08-18T09:31:41;7.57;;;2.40;;
45764;SDS011;31474;45.332;10.230;2022-08-18T09:39:34;7.72;;;2.65;;
45764;SDS011;31474;45.332;10.230;2022-08-18T09:42:49;15.43;;;4.00;;
45764;SDS011;31474;45.332;10.230;2022-08-18T09:52:51;6.57;;;2.40;;
45764;SDS011;31474;45.332;10.230;2022-08-18T09:57:43;13.02;;;2.97;;
45764;SDS011;31474;45.332;10.230;2022-08-18T10:24:54;6.78;;;2.65;;
45764;SDS011;31474;45.332;10.230;2022-08-18T10:30:44;8.63;;;3.03;;
45764;SDS011;31474;45.332;10.230;2022-08-18T10:33:11;6.07;;;2.20;;
45764;SDS011;31474;45.332;10.230;2022-08-18T10:38:59;5.32;;;2.42;;
45764;SDS011;31474;45.332;10.230;2022-08-18T10:41:30;6.90;;;2.65;;
45764;SDS011;31474;45.332;10.230;2022-08-18T10:43:58;6.60;;;2.72;;
45764;SDS011;31474;45.332;10.230;2022-08-18T10:46:27;7.72;;;2.78;;
45764;SDS011;31474;45.332;10.230;2022-08-18T10:48:58;4.57;;;2.70;;
45764;SDS011;31474;45.332;10.230;2022-08-18T10:51:39;4.70;;;2.25;;
45764;SDS011;31474;45.332;10.230;2022-08-18T10:54:14;6.95;;;2.08;;
45764;SDS011;31474;45.332;10.230;2022-08-18T11:04:55;1.35;;;0.88;;
45764;SDS011;31474;45.332;10.230;2022-08-18T11:07:23;1.33;;;0.43;;
45764;SDS011;31474;45.332;10.230;2022-08-18T11:09:52;4.72;;;0.70;;
45764;SDS011;31474;45.332;10.230;2022-08-18T11:15:34;1.85;;;0.40;;
45764;SDS011;31474;45.332;10.230;2022-08-18T11:20:45;1.75;;;0.60;;
45764;SDS011;31474;45.332;10.230;2022-08-18T11:23:12;0.93;;;0.30;;
45764;SDS011;31474;45.332;10.230;2022-08-18T11:25:39;1.55;;;0.60;;
45764;SDS011;31474;45.332;10.230;2022-08-18T11:28:14;0.73;;;0.50;;
45764;SDS011;31474;45.332;10.230;2022-08-18T11:30:45;1.42;;;0.40;;
45764;SDS011;31474;45.332;10.230;2022-08-18T11:33:15;1.77;;;0.80;;
45764;SDS011;31474;45.332;10.230;2022-08-18T11:35:46;2.40;;;1.08;;
45764;SDS011;31474;45.332;10.230;2022-08-18T11:38:15;1.60;;;0.80;;
45764;SDS011;31474;45.332;10.230;2022-08-18T11:40:43;2.05;;;1.13;;
45764;SDS011;31474;45.332;10.230;2022-08-18T11:43:16;2.72;;;1.33;;
45764;SDS011;31474;45.332;10.230;2022-08-18T11:45:55;3.15;;;1.00;;
45764;SDS011;31474;45.332;10.230;2022-08-18T11:58:51;2.17;;;0.95;;
45764;SDS011;31474;45.332;10.230;2022-08-18T12:04:08;3.17;;;1.15;;
45764;SDS011;31474;45.332;10.230;2022-08-18T12:06:55;2.38;;;1.50;;
45764;SDS011;31474;45.332;10.230;2022-08-18T12:17:21;2.22;;;1.33;;
45764;SDS011;31474;45.332;10.230;2022-08-18T12:19:47;5.32;;;1.55;;
45764;SDS011;31474;45.332;10.230;2022-08-18T12:22:14;2.67;;;1.55;;
45764;SDS011;31474;45.332;10.230;2022-08-18T12:24:43;6.25;;;1.25;;
45764;SDS011;31474;45.332;10.230;2022-08-18T12:27:11;2.75;;;1.45;;
45764;SDS011;31474;45.332;10.230;2022-08-18T12:29:39;7.00;;;2.20;;
45764;SDS011;31474;45.332;10.230;2022-08-18T12:32:05;1.83;;;1.27;;
45764;SDS011;31474;45.332;10.230;2022-08-18T12:34:31;1.98;;;1.83;;
45764;SDS011;31474;45.332;10.230;2022-08-18T12:36:58;5.28;;;1.38;;
45764;SDS011;31474;45.332;10.230;2022-08-18T12:39:28;4.63;;;1.75;;
45764;SDS011;31474;45.332;10.230;2022-08-18T12:41:55;2.75;;;1.30;;
45764;SDS011;31474;45.332;10.230;2022-08-18T12:44:21;3.63;;;1.83;;
45764;SDS011;31474;45.332;10.230;2022-08-18T12:46:46;4.30;;;1.85;;
45764;SDS011;31474;45.332;10.230;2022-08-18T12:49:15;3.30;;;1.67;;
45764;SDS011;31474;45.332;10.230;2022-08-18T12:51:42;3.35;;;1.80;;
45764;SDS011;31474;45.332;10.230;2022-08-18T12:54:09;5.10;;;2.17;;
45764;SDS011;31474;45.332;10.230;2022-08-18T12:56:35;4.93;;;1.90;;
45764;SDS011;31474;45.332;10.230;2022-08-18T12:59:02;3.30;;;1.80;;
45764;SDS011;31474;45.332;10.230;2022-08-18T13:01:29;4.38;;;2.20;;
45764;SDS011;31474;45.332;10.230;2022-08-18T13:03:56;5.90;;;2.10;;
45764;SDS011;31474;45.332;10.230;2022-08-18T13:06:23;3.63;;;2.42;;
45764;SDS011;31474;45.332;10.230;2022-08-18T13:08:49;7.13;;;2.63;;
45764;SDS011;31474;45.332;10.230;2022-08-18T13:11:17;3.10;;;1.92;;
45764;SDS011;31474;45.332;10.230;2022-08-18T13:13:43;7.22;;;2.83;;
45764;SDS011;31474;45.332;10.230;2022-08-18T13:16:09;4.07;;;2.38;;
45764;SDS011;31474;45.332;10.230;2022-08-18T13:18:36;5.30;;;2.60;;
45764;SDS011;31474;45.332;10.230;2022-08-18T13:21:03;7.03;;;3.00;;
45764;SDS011;31474;45.332;10.230;2022-08-18T13:23:29;5.38;;;2.65;;
45764;SDS011;31474;45.332;10.230;2022-08-18T13:25:57;6.20;;;2.78;;
45764;SDS011;31474;45.332;10.230;2022-08-18T13:28:24;6.18;;;2.90;;
45764;SDS011;31474;45.332;10.230;2022-08-18T13:30:50;4.07;;;3.13;;
45764;SDS011;31474;45.332;10.230;2022-08-18T13:33:16;4.13;;;2.67;;
45764;SDS011;31474;45.332;10.230;2022-08-18T13:35:45;3.92;;;3.33;;
45764;SDS011;31474;45.332;10.230;2022-08-18T13:38:12;4.15;;;2.75;;
45764;SDS011;31474;45.332;10.230;2022-08-18T13:40:44;5.63;;;3.30;;
45764;SDS011;31474;45.332;10.230;2022-08-18T13:43:12;6.82;;;3.50;;
45764;SDS011;31474;45.332;10.230;2022-08-18T13:45:39;7.55;;;3.30;;
45764;SDS011;31474;45.332;10.230;2022-08-18T13:48:06;8.13;;;3.88;;
45764;SDS011;31474;45.332;10.230;2022-08-18T13:50:32;6.15;;;3.70;;
45764;SDS011;31474;45.332;10.230;2022-08-18T13:52:57;5.90;;;3.60;;
45764;SDS011;31474;45.332;10.230;2022-08-18T13:55:26;5.88;;;3.50;;
45764;SDS011;31474;45.332;10.230;2022-08-18T13:57:53;4.05;;;3.20;;
45764;SDS011;31474;45.332;10.230;2022-08-18T14:00:19;4.53;;;2.95;;
45764;SDS011;31474;45.332;10.230;2022-08-18T14:02:47;5.20;;;3.05;;
45764;SDS011;31474;45.332;10.230;2022-08-18T14:05:17;4.95;;;3.20;;
45764;SDS011;31474;45.332;10.230;2022-08-18T14:07:44;3.58;;;2.72;;
45764;SDS011;31474;45.332;10.230;2022-08-18T14:10:10;7.38;;;3.80;;
45764;SDS011;31474;45.332;10.230;2022-08-18T14:12:37;4.35;;;3.30;;
45764;SDS011;31474;45.332;10.230;2022-08-18T14:15:06;5.47;;;3.40;;
45764;SDS011;31474;45.332;10.230;2022-08-18T14:17:33;4.00;;;3.00;;
45764;SDS011;31474;45.332;10.230;2022-08-18T14:19:59;6.45;;;4.18;;
45764;SDS011;31474;45.332;10.230;2022-08-18T14:22:44;4.68;;;3.60;;
45764;SDS011;31474;45.332;10.230;2022-08-18T14:25:29;6.93;;;3.88;;
45764;SDS011;31474;45.332;10.230;2022-08-18T14:28:13;11.02;;;4.30;;
45764;SDS011;31474;45.332;10.230;2022-08-18T14:30:41;7.80;;;4.88;;
45764;SDS011;31474;45.332;10.230;2022-08-18T14:33:07;6.45;;;4.53;;
45764;SDS011;31474;45.332;10.230;2022-08-18T14:35:34;5.82;;;4.30;;
45764;SDS011;31474;45.332;10.230;2022-08-18T14:38:00;8.43;;;4.93;;
45764;SDS011;31474;45.332;10.230;2022-08-18T14:40:28;7.88;;;5.28;;
45764;SDS011;31474;45.332;10.230;2022-08-18T14:42:56;8.00;;;5.15;;
45764;SDS011;31474;45.332;10.230;2022-08-18T14:45:23;8.45;;;5.53;;
45764;SDS011;31474;45.332;10.230;2022-08-18T14:47:49;7.90;;;5.15;;
45764;SDS011;31474;45.332;10.230;2022-08-18T14:50:17;7.32;;;4.70;;
45764;SDS011;31474;45.332;10.230;2022-08-18T14:52:44;8.80;;;4.30;;
45764;SDS011;31474;45.332;10.230;2022-08-18T14:55:10;5.65;;;4.68;;
45764;SDS011;31474;45.332;10.230;2022-08-18T14:57:36;5.22;;;4.13;;
45764;SDS011;31474;45.332;10.230;2022-08-18T15:00:04;5.68;;;3.90;;
45764;SDS011;31474;45.332;10.230;2022-08-18T15:02:36;6.05;;;4.13;;
45764;SDS011;31474;45.332;10.230;2022-08-18T15:05:03;8.23;;;4.95;;
45764;SDS011;31474;45.332;10.230;2022-08-18T15:07:29;7.20;;;4.38;;
45764;SDS011;31474;45.332;10.230;2022-08-18T15:09:55;7.10;;;4.90;;
45764;SDS011;31474;45.332;10.230;2022-08-18T15:12:22;6.85;;;4.68;;
45764;SDS011;31474;45.332;10.230;2022-08-18T15:14:49;7.97;;;4.93;;
45764;SDS011;31474;45.332;10.230;2022-08-18T15:17:15;7.53;;;5.07;;
45764;SDS011;31474;45.332;10.230;2022-08-18T15:19:41;9.38;;;4.40;;
45764;SDS011;31474;45.332;10.230;2022-08-18T15:22:08;7.30;;;4.78;;
45764;SDS011;31474;45.332;10.230;2022-08-18T15:24:53;9.00;;;5.18;;
45764;SDS011;31474;45.332;10.230;2022-08-18T15:27:37;8.48;;;4.78;;
45764;SDS011;31474;45.332;10.230;2022-08-18T15:30:08;9.68;;;4.97;;
45764;SDS011;31474;45.332;10.230;2022-08-18T15:32:38;8.35;;;4.72;;
45764;SDS011;31474;45.332;10.230;2022-08-18T15:35:04;6.40;;;4.72;;
45764;SDS011;31474;45.332;10.230;2022-08-18T15:37:32;7.15;;;4.47;;
45764;SDS011;31474;45.332;10.230;2022-08-18T15:40:00;8.35;;;4.72;;
45764;SDS011;31474;45.332;10.230;2022-08-18T15:42:47;7.32;;;4.03;;
45764;SDS011;31474;45.332;10.230;2022-08-18T15:45:21;4.93;;;3.33;;
45764;SDS011;31474;45.332;10.230;2022-08-18T15:47:51;8.45;;;4.30;;
45764;SDS011;31474;45.332;10.230;2022-08-18T15:50:17;6.25;;;3.30;;
45764;SDS011;31474;45.332;10.230;2022-08-18T15:55:14;5.95;;;3.70;;
45764;SDS011;31474;45.332;10.230;2022-08-18T15:57:44;7.05;;;4.38;;
45764;SDS011;31474;45.332;10.230;2022-08-18T16:00:10;7.10;;;3.50;;
45764;SDS011;31474;45.332;10.230;2022-08-18T16:02:39;6.28;;;3.50;;
45764;SDS011;31474;45.332;10.230;2022-08-18T16:05:06;6.57;;;3.25;;
45764;SDS011;31474;45.332;10.230;2022-08-18T16:07:32;5.15;;;2.97;;
45764;SDS011;31474;45.332;10.230;2022-08-18T16:09:59;5.90;;;3.00;;
45764;SDS011;31474;45.332;10.230;2022-08-18T16:12:26;5.95;;;3.55;;
45764;SDS011;31474;45.332;10.230;2022-08-18T16:14:52;4.28;;;2.75;;
45764;SDS011;31474;45.332;10.230;2022-08-18T16:17:17;6.40;;;2.88;;
45764;SDS011;31474;45.332;10.230;2022-08-18T16:19:45;9.27;;;3.15;;
45764;SDS011;31474;45.332;10.230;2022-08-18T16:22:11;5.25;;;2.97;;
45764;SDS011;31474;45.332;10.230;2022-08-18T16:24:37;9.48;;;3.28;;
45764;SDS011;31474;45.332;10.230;2022-08-18T16:27:03;7.00;;;2.92;;
45764;SDS011;31474;45.332;10.230;2022-08-18T16:29:30;3.55;;;2.83;;
45764;SDS011;31474;45.332;10.230;2022-08-18T16:31:57;6.85;;;2.80;;
45764;SDS011;31474;45.332;10.230;2022-08-18T16:34:23;3.33;;;2.22;;
45764;SDS011;31474;45.332;10.230;2022-08-18T16:36:51;6.80;;;2.67;;
45764;SDS011;31474;45.332;10.230;2022-08-18T16:39:17;4.25;;;2.70;;
45764;SDS011;31474;45.332;10.230;2022-08-18T16:41:42;8.75;;;2.95;;
45764;SDS011;31474;45.332;10.230;2022-08-18T16:44:08;5.25;;;2.83;;
45764;SDS011;31474;45.332;10.230;2022-08-18T16:46:34;4.20;;;2.72;;
45764;SDS011;31474;45.332;10.230;2022-08-18T16:49:00;5.78;;;3.17;;
45764;SDS011;31474;45.332;10.230;2022-08-18T16:51:30;4.90;;;2.97;;
45764;SDS011;31474;45.332;10.230;2022-08-18T16:53:55;4.55;;;2.65;;
45764;SDS011;31474;45.332;10.230;2022-08-18T16:56:26;5.07;;;2.90;;
45764;SDS011;31474;45.332;10.230;2022-08-18T16:58:54;4.70;;;3.15;;
45764;SDS011;31474;45.332;10.230;2022-08-18T17:01:39;5.13;;;2.67;;
45764;SDS011;31474;45.332;10.230;2022-08-18T17:04:25;7.88;;;2.78;;
45764;SDS011;31474;45.332;10.230;2022-08-18T17:06:52;8.90;;;3.03;;
45764;SDS011;31474;45.332;10.230;2022-08-18T17:09:19;3.70;;;2.38;;
45764;SDS011;31474;45.332;10.230;2022-08-18T17:11:46;4.60;;;2.70;;
45764;SDS011;31474;45.332;10.230;2022-08-18T17:14:13;4.85;;;2.72;;
45764;SDS011;31474;45.332;10.230;2022-08-18T17:16:39;7.32;;;2.03;;
45764;SDS011;31474;45.332;10.230;2022-08-18T17:19:06;3.55;;;2.38;;
45764;SDS011;31474;45.332;10.230;2022-08-18T17:21:33;4.30;;;1.83;;
45764;SDS011;31474;45.332;10.230;2022-08-18T17:24:01;5.63;;;1.98;;
45764;SDS011;31474;45.332;10.230;2022-08-18T17:29:33;5.35;;;1.90;;
45764;SDS011;31474;45.332;10.230;2022-08-18T17:32:02;10.27;;;3.38;;
45764;SDS011;31474;45.332;10.230;2022-08-18T17:34:34;6.70;;;2.65;;
45764;SDS011;31474;45.332;10.230;2022-08-18T17:37:06;4.87;;;2.50;;
45764;SDS011;31474;45.332;10.230;2022-08-18T17:39:43;4.07;;;1.70;;
45764;SDS011;31474;45.332;10.230;2022-08-18T17:42:24;7.50;;;2.03;;
45764;SDS011;31474;45.332;10.230;2022-08-18T17:44:55;5.03;;;1.55;;
45764;SDS011;31474;45.332;10.230;2022-08-18T17:53:36;11.15;;;1.90;;